Time;durP1;ratioP1;P1;durP2;ratioP2;P2;SDS_P1;SDS_P2;PMS_P1;PMS_P2;Temp;Humidity;BMP_temperature;BMP_pressure;BME280_temperature;BME280_humidity;BME280_pressure;Samples;Min_cycle;Max_cycle;Signal;HPM_P1;HPM_P2
2021/03/01 00:00:29;;;;;;;39.97;21.67;;;6.00;99.90;;;;;;5091774;28;20052;-84
2021/03/01 00:02:55;;;;;;;33.47;19.33;;;6.00;99.90;;;;;;5075124;28;20032;-86
2021/03/01 00:05:21;;;;;;;43.85;22.98;;;6.00;99.90;;;;;;5074858;28;20025;-86
2021/03/01 00:07:47;;;;;;;34.22;19.60;;;6.00;99.90;;;;;;5075528;28;20391;-86
2021/03/01 00:10:13;;;;;;;38.35;19.05;;;6.00;99.90;;;;;;5074729;28;20048;-82
2021/03/01 00:12:40;;;;;;;40.70;21.45;;;6.00;99.90;;;;;;5074892;28;20101;-86
2021/03/01 00:15:08;;;;;;;37.88;20.80;;;6.00;99.90;;;;;;5074780;28;20451;-84
2021/03/01 00:17:34;;;;;;;48.72;25.48;;;6.00;99.90;;;;;;5074803;28;20021;-84
2021/03/01 00:19:59;;;;;;;39.33;21.48;;;5.90;99.90;;;;;;5075979;28;20023;-86
2021/03/01 00:22:25;;;;;;;38.60;20.65;;;5.90;99.90;;;;;;5076010;28;20027;-83
2021/03/01 00:24:51;;;;;;;45.45;23.80;;;5.90;99.90;;;;;;5091458;28;20040;-83
2021/03/01 00:27:16;;;;;;;45.40;22.63;;;5.90;99.90;;;;;;5075649;28;20466;-85
2021/03/01 00:29:42;;;;;;;41.03;22.77;;;5.90;99.90;;;;;;5075059;28;20032;-84
2021/03/01 00:32:07;;;;;;;43.80;24.05;;;5.90;99.90;;;;;;5074712;28;20020;-85
2021/03/01 00:34:33;;;;;;;41.95;22.27;;;5.90;99.90;;;;;;5075726;28;20476;-86
2021/03/01 00:36:59;;;;;;;43.90;23.55;;;6.00;99.90;;;;;;5074787;28;20025;-86
2021/03/01 00:39:25;;;;;;;47.60;24.15;;;6.00;99.90;;;;;;5087125;28;20039;-86
2021/03/01 00:41:51;;;;;;;44.75;23.73;;;6.00;99.90;;;;;;5084832;28;20530;-87
2021/03/01 00:44:17;;;;;;;40.30;21.80;;;6.00;99.90;;;;;;5074951;28;20032;-85
2021/03/01 00:46:42;;;;;;;37.30;20.05;;;6.00;99.90;;;;;;5094094;28;20116;-86
2021/03/01 00:49:08;;;;;;;41.67;22.45;;;6.10;99.90;;;;;;5094338;28;20028;-83
2021/03/01 00:51:34;;;;;;;46.00;23.48;;;6.10;99.90;;;;;;5094364;28;20058;-85
2021/03/01 00:53:59;;;;;;;50.67;25.17;;;6.10;99.90;;;;;;5094153;28;20028;-85
2021/03/01 00:56:25;;;;;;;45.58;23.92;;;6.00;99.90;;;;;;5093843;28;20043;-83
2021/03/01 00:58:50;;;;;;;48.25;25.60;;;6.00;99.90;;;;;;5095163;28;20047;-84
2021/03/01 01:01:16;;;;;;;45.55;24.20;;;5.90;99.90;;;;;;5093915;28;20016;-85
2021/03/01 01:03:41;;;;;;;43.92;24.55;;;5.90;99.90;;;;;;5094017;28;20025;-84
2021/03/01 01:06:07;;;;;;;45.35;24.98;;;5.90;99.90;;;;;;5094187;28;20024;-84
2021/03/01 01:08:33;;;;;;;40.95;22.38;;;5.90;99.90;;;;;;5095134;28;20028;-82
2021/03/01 01:10:58;;;;;;;44.50;25.63;;;5.90;99.90;;;;;;5094833;28;20133;-85
2021/03/01 01:13:24;;;;;;;46.92;24.83;;;6.00;99.90;;;;;;5094535;28;20024;-85
2021/03/01 01:15:50;;;;;;;46.33;23.83;;;5.90;99.90;;;;;;5098362;28;20050;-82
2021/03/01 01:18:15;;;;;;;43.33;24.23;;;5.90;99.90;;;;;;5110344;28;20034;-84
2021/03/01 01:20:41;;;;;;;45.13;25.33;;;5.90;99.90;;;;;;5107022;28;20483;-84
2021/03/01 01:23:06;;;;;;;51.42;27.95;;;5.90;99.90;;;;;;5095904;28;20024;-85
2021/03/01 01:25:32;;;;;;;47.95;25.05;;;5.90;99.90;;;;;;5096529;28;20024;-85
2021/03/01 01:27:58;;;;;;;41.25;22.88;;;5.90;99.90;;;;;;5087561;28;20040;-86
2021/03/01 01:30:26;;;;;;;50.45;27.65;;;5.90;99.90;;;;;;5073800;28;20392;-85
2021/03/01 01:32:51;;;;;;;45.92;25.80;;;6.00;99.90;;;;;;5074017;28;20052;-87
2021/03/01 01:35:19;;;;;;;43.60;25.13;;;5.90;99.90;;;;;;5075436;28;20093;-87
2021/03/01 01:37:45;;;;;;;45.03;25.52;;;5.90;99.90;;;;;;5073868;28;20030;-86
2021/03/01 01:40:15;;;;;;;37.85;23.35;;;5.90;99.90;;;;;;5074998;28;20056;-87
2021/03/01 01:42:41;;;;;;;42.72;24.45;;;5.90;99.90;;;;;;5073515;28;20150;-85
2021/03/01 01:45:13;;;;;;;47.38;26.10;;;5.90;99.90;;;;;;5073066;28;20028;-86
2021/03/01 01:47:40;;;;;;;48.58;25.80;;;5.90;99.90;;;;;;5073156;28;20032;-83
2021/03/01 01:50:07;;;;;;;41.88;22.92;;;5.90;99.90;;;;;;5073317;28;20501;-85
2021/03/01 01:52:33;;;;;;;42.45;24.52;;;5.90;99.90;;;;;;5073314;28;20124;-84
2021/03/01 01:54:59;;;;;;;39.92;22.90;;;5.80;99.90;;;;;;5072857;28;20135;-84
2021/03/01 01:57:25;;;;;;;40.08;21.55;;;5.80;99.90;;;;;;5074320;28;20024;-87
2021/03/01 01:59:51;;;;;;;40.92;23.23;;;5.80;99.90;;;;;;5072731;28;20036;-86
2021/03/01 02:02:17;;;;;;;38.40;22.88;;;5.80;99.90;;;;;;5073060;28;20028;-87
2021/03/01 02:04:55;;;;;;;45.15;24.50;;;5.80;99.90;;;;;;5073097;28;20039;-86
2021/03/01 02:07:21;;;;;;;36.45;21.50;;;5.80;99.90;;;;;;5072759;28;20553;-86
2021/03/01 02:10:01;;;;;;;45.65;24.77;;;5.80;99.90;;;;;;5072940;28;20021;-87
2021/03/01 02:13:01;;;;;;;43.08;26.48;;;5.80;99.90;;;;;;5072924;28;20380;-86
2021/03/01 02:16:08;;;;;;;43.45;24.10;;;5.80;99.90;;;;;;5073864;28;20025;-87
2021/03/01 02:18:33;;;;;;;50.63;26.73;;;5.80;99.90;;;;;;4995646;28;20405;-86
2021/03/01 02:21:10;;;;;;;48.13;26.52;;;5.70;99.90;;;;;;5059141;28;20039;-87
2021/03/01 02:23:36;;;;;;;41.78;23.25;;;5.80;99.90;;;;;;5072779;28;20055;-84
2021/03/01 02:26:26;;;;;;;40.58;24.45;;;5.80;99.90;;;;;;5072572;28;20067;-84
2021/03/01 02:28:57;;;;;;;43.35;24.77;;;5.80;99.90;;;;;;5074114;28;20047;-87
2021/03/01 02:31:25;;;;;;;35.00;21.95;;;5.80;99.90;;;;;;5072412;28;20028;-85
2021/03/01 02:33:55;;;;;;;44.75;26.25;;;5.80;99.90;;;;;;5072731;28;20108;-84
2021/03/01 02:36:28;;;;;;;46.35;26.25;;;5.80;99.90;;;;;;5072554;28;20054;-86
2021/03/01 02:38:56;;;;;;;52.28;28.40;;;5.90;99.90;;;;;;5072351;28;20030;-86
2021/03/01 02:41:23;;;;;;;48.42;26.20;;;5.90;99.90;;;;;;5072544;28;20368;-87
2021/03/01 02:43:50;;;;;;;38.15;23.08;;;5.90;99.90;;;;;;5072439;28;20024;-86
2021/03/01 02:46:16;;;;;;;50.33;28.85;;;5.90;99.90;;;;;;5073355;28;20091;-86
2021/03/01 02:48:43;;;;;;;46.67;27.83;;;5.90;99.90;;;;;;5072281;28;20031;-85
2021/03/01 02:51:10;;;;;;;48.20;26.60;;;5.90;99.90;;;;;;5073296;28;20021;-86
2021/03/01 02:53:39;;;;;;;45.63;26.90;;;5.90;99.90;;;;;;5073439;28;20031;-86
2021/03/01 02:56:05;;;;;;;47.03;26.90;;;5.90;99.90;;;;;;5071914;28;20044;-86
2021/03/01 02:58:33;;;;;;;50.50;28.08;;;5.90;99.90;;;;;;5071943;28;20067;-86
2021/03/01 03:01:00;;;;;;;43.60;26.48;;;5.90;99.90;;;;;;5073374;28;20031;-85
2021/03/01 03:03:28;;;;;;;52.45;28.83;;;5.90;99.90;;;;;;5071901;28;20032;-87
2021/03/01 03:05:54;;;;;;;52.95;28.25;;;5.90;99.90;;;;;;5071800;28;20028;-85
2021/03/01 03:08:20;;;;;;;46.85;25.92;;;5.90;99.90;;;;;;5073385;28;20016;-86
2021/03/01 03:10:49;;;;;;;46.75;26.67;;;5.90;99.90;;;;;;5071177;28;20029;-87
2021/03/01 03:13:17;;;;;;;43.85;24.15;;;5.90;99.90;;;;;;5071964;28;20027;-86
2021/03/01 03:15:45;;;;;;;50.40;29.60;;;6.00;99.90;;;;;;5071958;28;20066;-87
2021/03/01 03:18:17;;;;;;;46.50;27.38;;;6.00;99.90;;;;;;5072052;28;20056;-86
2021/03/01 03:20:42;;;;;;;45.63;27.15;;;6.00;99.90;;;;;;5072139;28;20025;-87
2021/03/01 03:23:08;;;;;;;43.47;26.02;;;5.90;99.90;;;;;;5072105;28;20028;-85
2021/03/01 03:25:34;;;;;;;46.95;26.95;;;5.90;99.90;;;;;;5071916;28;20494;-86
2021/03/01 03:28:01;;;;;;;44.75;26.30;;;5.90;99.90;;;;;;5071714;28;20013;-86
2021/03/01 03:30:27;;;;;;;42.75;26.23;;;5.90;99.90;;;;;;5072945;28;20499;-86
2021/03/01 03:32:53;;;;;;;47.90;26.85;;;5.80;99.90;;;;;;5071676;28;20032;-86
2021/03/01 03:35:19;;;;;;;49.97;29.92;;;5.80;99.90;;;;;;5071779;28;20059;-86
2021/03/01 03:38:14;;;;;;;40.53;24.60;;;5.80;99.90;;;;;;5071634;28;20027;-85
2021/03/01 03:40:44;;;;;;;46.67;27.33;;;5.80;99.90;;;;;;5071237;28;20025;-86
2021/03/01 03:43:12;;;;;;;40.05;24.60;;;5.70;99.90;;;;;;5071454;28;20116;-85
2021/03/01 03:45:39;;;;;;;40.85;23.67;;;5.80;99.90;;;;;;5071595;28;20028;-87
2021/03/01 03:48:05;;;;;;;44.78;26.70;;;5.80;99.90;;;;;;5105300;28;20115;-87
2021/03/01 03:50:32;;;;;;;42.53;25.88;;;5.80;99.90;;;;;;5071662;28;20025;-87
2021/03/01 03:53:12;;;;;;;43.60;26.52;;;5.80;99.90;;;;;;5072795;28;20073;-86
2021/03/01 03:55:40;;;;;;;;;;;5.80;99.90;;;;;;5071966;28;20389;-86
2021/03/01 03:58:08;;;;;;;45.58;26.25;;;5.70;99.90;;;;;;5071518;28;19904;-85
2021/03/01 04:00:36;;;;;;;39.70;25.00;;;5.70;99.90;;;;;;5071598;28;20050;-87
2021/03/01 04:03:07;;;;;;;44.95;25.50;;;5.70;99.90;;;;;;5072694;28;20040;-86
2021/03/01 04:05:33;;;;;;;43.38;26.10;;;5.70;99.90;;;;;;5072356;28;20021;-87
2021/03/01 04:07:59;;;;;;;42.42;24.50;;;5.70;99.90;;;;;;5072143;28;20021;-86
2021/03/01 04:10:30;;;;;;;36.97;24.05;;;5.70;99.90;;;;;;5071933;28;20021;-87
2021/03/01 04:12:57;;;;;;;46.72;26.88;;;5.80;99.90;;;;;;5072210;28;20021;-85
2021/03/01 04:15:24;;;;;;;40.00;25.13;;;5.80;99.90;;;;;;5071948;28;20395;-88
2021/03/01 04:17:51;;;;;;;48.70;28.15;;;5.80;99.90;;;;;;5072347;28;20466;-87
2021/03/01 04:20:22;;;;;;;43.20;26.35;;;5.80;99.90;;;;;;5105516;28;20426;-86
2021/03/01 04:22:49;;;;;;;40.97;24.15;;;5.80;99.90;;;;;;5074521;28;20086;-86
2021/03/01 04:25:16;;;;;;;41.67;25.08;;;5.80;99.90;;;;;;5076491;28;20029;-84
2021/03/01 04:27:42;;;;;;;39.22;24.38;;;5.90;99.90;;;;;;5074847;28;20024;-87
2021/03/01 04:30:09;;;;;;;41.08;24.17;;;5.80;99.90;;;;;;5076315;28;20433;-86
2021/03/01 04:32:38;;;;;;;38.90;25.00;;;5.80;99.90;;;;;;5074937;28;20475;-86
2021/03/01 04:35:06;;;;;;;44.50;26.15;;;5.80;99.90;;;;;;5074804;28;20086;-86
2021/03/01 04:37:32;;;;;;;40.50;24.50;;;5.80;99.90;;;;;;5074728;28;20028;-86
2021/03/01 04:39:58;;;;;;;41.72;25.33;;;5.70;99.90;;;;;;5075838;28;20028;-87
2021/03/01 04:42:24;;;;;;;46.28;26.83;;;5.70;99.90;;;;;;5074719;28;20120;-84
2021/03/01 04:44:50;;;;;;;40.03;24.67;;;5.70;99.90;;;;;;5074716;28;20103;-85
2021/03/01 04:47:16;;;;;;;44.80;26.80;;;5.60;99.90;;;;;;5074393;28;20567;-86
2021/03/01 04:49:44;;;;;;;46.38;27.17;;;5.60;99.90;;;;;;5075641;28;20021;-86
2021/03/01 04:52:12;;;;;;;44.85;27.25;;;5.60;99.90;;;;;;5075710;28;20048;-86
2021/03/01 04:54:39;;;;;;;48.20;28.45;;;5.50;99.90;;;;;;5074412;28;20029;-87
2021/03/01 04:57:05;;;;;;;43.63;25.17;;;5.50;99.90;;;;;;5074327;28;20480;-86
2021/03/01 04:59:32;;;;;;;50.53;30.73;;;5.50;99.90;;;;;;5075688;28;20070;-86
2021/03/01 05:01:58;;;;;;;51.80;28.70;;;5.50;99.90;;;;;;5074297;28;20024;-86
2021/03/01 05:04:24;;;;;;;45.92;27.63;;;5.50;99.90;;;;;;5073760;28;20035;-85
2021/03/01 05:06:49;;;;;;;54.50;30.77;;;5.60;99.90;;;;;;5074999;28;20032;-87
2021/03/01 05:09:16;;;;;;;46.88;27.17;;;5.60;99.90;;;;;;5075307;28;20456;-85
2021/03/01 05:11:42;;;;;;;49.10;28.02;;;5.60;99.90;;;;;;5074159;28;20446;-86
2021/03/01 05:14:07;;;;;;;49.17;29.05;;;5.60;99.90;;;;;;5075395;28;20063;-86
2021/03/01 05:16:34;;;;;;;54.80;31.98;;;5.60;99.90;;;;;;5074268;28;20043;-86
2021/03/01 05:19:00;;;;;;;54.25;29.55;;;5.70;99.90;;;;;;5074739;28;20029;-86
2021/03/01 05:21:27;;;;;;;49.08;28.20;;;5.60;99.90;;;;;;5074156;28;20050;-86
2021/03/01 05:23:53;;;;;;;53.13;29.23;;;5.70;99.90;;;;;;5074787;28;20545;-86
2021/03/01 05:26:19;;;;;;;49.50;27.77;;;5.70;99.90;;;;;;5075428;28;20044;-85
2021/03/01 05:28:45;;;;;;;52.97;29.98;;;5.70;99.90;;;;;;5074892;28;20066;-86
2021/03/01 05:31:11;;;;;;;47.38;27.88;;;5.70;99.90;;;;;;5073811;28;20207;-84
2021/03/01 05:33:36;;;;;;;48.00;27.88;;;5.60;99.90;;;;;;5072629;28;20028;-86
2021/03/01 05:36:03;;;;;;;44.63;26.48;;;5.60;99.90;;;;;;5073479;28;20031;-86
2021/03/01 05:38:28;;;;;;;50.60;28.77;;;5.60;99.90;;;;;;5074946;28;20103;-86
2021/03/01 05:40:55;;;;;;;52.13;27.08;;;5.50;99.90;;;;;;5066438;28;20439;-87
2021/03/01 05:43:25;;;;;;;47.05;26.80;;;5.50;99.90;;;;;;5053376;28;20029;-86
2021/03/01 05:45:51;;;;;;;45.05;23.88;;;5.50;99.90;;;;;;5052785;28;20059;-86
2021/03/01 05:48:19;;;;;;;46.53;25.40;;;5.50;99.90;;;;;;5053525;28;20025;-85
2021/03/01 05:50:46;;;;;;;48.85;25.85;;;5.50;99.90;;;;;;5053076;28;20465;-86
2021/03/01 05:53:22;;;;;;;50.50;26.95;;;5.50;99.90;;;;;;5053057;28;20033;-86
2021/03/01 05:55:49;;;;;;;49.92;26.67;;;5.50;99.90;;;;;;5054643;28;20071;-87
2021/03/01 05:58:16;;;;;;;48.35;26.50;;;5.50;99.90;;;;;;5053132;28;20033;-86
2021/03/01 06:00:42;;;;;;;51.53;28.38;;;5.50;99.90;;;;;;5053197;28;20472;-86
2021/03/01 06:03:07;;;;;;;49.60;26.75;;;5.50;99.90;;;;;;5053117;28;20040;-86
2021/03/01 06:05:33;;;;;;;43.58;24.33;;;5.50;99.90;;;;;;5052994;28;20400;-87
2021/03/01 06:07:59;;;;;;;48.40;26.70;;;5.60;99.90;;;;;;5052979;28;20052;-85
2021/03/01 06:10:25;;;;;;;40.20;23.52;;;5.50;99.90;;;;;;5052984;28;20029;-85
2021/03/01 06:12:50;;;;;;;43.20;23.42;;;5.50;99.90;;;;;;5052807;28;20116;-86
2021/03/01 06:15:16;;;;;;;38.10;21.23;;;5.50;99.90;;;;;;5052550;28;20052;-86
2021/03/01 06:18:02;;;;;;;44.58;25.05;;;5.50;99.90;;;;;;5053026;28;20028;-87
2021/03/01 06:20:27;;;;;;;45.45;24.60;;;5.50;99.90;;;;;;5052970;28;20024;-87
2021/03/01 06:22:53;;;;;;;50.63;28.67;;;5.40;99.90;;;;;;5053013;28;20024;-84
2021/03/01 06:25:18;;;;;;;51.42;27.23;;;5.40;99.90;;;;;;5052637;28;20021;-86
2021/03/01 06:28:05;;;;;;;53.38;28.70;;;5.40;99.90;;;;;;5052265;28;20503;-86
2021/03/01 06:30:39;;;;;;;47.83;26.05;;;5.30;99.90;;;;;;5094662;28;20400;-87
2021/03/01 06:33:17;;;;;;;53.13;27.20;;;5.30;99.90;;;;;;5098096;28;20028;-84
2021/03/01 06:35:48;;;;;;;55.45;27.15;;;5.30;99.90;;;;;;5057881;28;20052;-88
2021/03/01 06:38:23;;;;;;;50.60;26.98;;;5.30;99.90;;;;;;5062785;28;20376;-87
2021/03/01 06:41:09;;;;;;;48.22;26.58;;;5.30;99.90;;;;;;5075161;28;20119;-88
2021/03/01 06:43:35;;;;;;;48.08;26.33;;;5.40;99.90;;;;;;5065885;28;20017;-88
2021/03/01 06:46:10;;;;;;;53.15;27.00;;;5.30;99.90;;;;;;5060339;28;20021;-86
2021/03/01 06:48:37;;;;;;;45.80;25.20;;;5.30;99.90;;;;;;5072968;28;20013;-87
2021/03/01 06:51:04;;;;;;;44.90;25.33;;;5.30;99.90;;;;;;5059937;28;20016;-87
2021/03/01 06:53:29;;;;;;;47.85;25.67;;;5.40;99.90;;;;;;5072604;28;20017;-88
2021/03/01 06:56:11;;;;;;;49.20;25.70;;;5.40;99.90;;;;;;5072853;28;20102;-88
2021/03/01 06:58:45;;;;;;;47.75;26.23;;;5.40;99.90;;;;;;5073111;28;20039;-89
2021/03/01 07:01:17;;;;;;;42.17;24.58;;;5.50;99.90;;;;;;5072261;28;20028;-89
2021/03/01 07:03:46;;;;;;;50.38;26.13;;;5.50;99.90;;;;;;5083552;28;20054;-87
2021/03/01 07:06:11;;;;;;;42.67;24.00;;;5.40;99.90;;;;;;5077494;28;20028;-86
2021/03/01 07:08:49;;;;;;;42.83;24.77;;;5.40;99.90;;;;;;5083070;28;20429;-87
2021/03/01 07:11:30;;;;;;;49.60;26.13;;;5.50;99.90;;;;;;5082696;28;20383;-87
2021/03/01 07:14:05;;;;;;;43.63;25.17;;;5.40;99.90;;;;;;5083069;28;20166;-88
2021/03/01 07:16:35;;;;;;;44.10;24.08;;;5.40;99.90;;;;;;5077828;28;20058;-88
2021/03/01 07:19:01;;;;;;;45.40;24.88;;;5.40;99.90;;;;;;5082532;28;20032;-87
2021/03/01 07:21:27;;;;;;;45.33;24.85;;;5.30;99.90;;;;;;5082138;28;20052;-89
2021/03/01 07:23:57;;;;;;;46.88;24.45;;;5.30;99.90;;;;;;5083175;28;20089;-88
2021/03/01 07:26:25;;;;;;;41.47;22.60;;;5.40;99.90;;;;;;5083183;28;20475;-86
2021/03/01 07:28:54;;;;;;;41.75;22.80;;;5.40;99.90;;;;;;5099914;28;20031;-87
2021/03/01 07:31:22;;;;;;;38.65;21.42;;;5.40;99.90;;;;;;5079676;28;20020;-87
2021/03/01 07:33:48;;;;;;;40.45;22.58;;;5.40;99.90;;;;;;5076326;28;20158;-88
2021/03/01 07:36:16;;;;;;;43.30;24.25;;;5.30;99.90;;;;;;5071646;28;20020;-90
2021/03/01 07:38:42;;;;;;;44.65;23.80;;;5.30;99.90;;;;;;5073179;28;20569;-89
2021/03/01 07:41:08;;;;;;;40.85;22.52;;;5.30;99.90;;;;;;5073426;28;20024;-88
2021/03/01 07:43:42;;;;;;;40.72;23.10;;;5.30;99.90;;;;;;5072782;28;20526;-90
2021/03/01 07:46:09;;;;;;;44.63;24.13;;;5.40;99.90;;;;;;5082993;28;20532;-89
2021/03/01 07:48:40;;;;;;;42.40;23.10;;;5.40;99.90;;;;;;5079795;28;20074;-90
2021/03/01 07:51:06;;;;;;;36.03;21.10;;;5.50;99.90;;;;;;5092406;28;20074;-88
2021/03/01 07:53:52;;;;;;;33.13;19.65;;;5.50;99.90;;;;;;5092135;28;20055;-88
2021/03/01 07:56:38;;;;;;;33.15;20.77;;;5.50;99.90;;;;;;5093369;28;20044;-90
2021/03/01 07:59:06;;;;;;;30.20;17.67;;;5.50;99.90;;;;;;5081778;28;20040;-88
2021/03/01 08:01:31;;;;;;;33.72;20.13;;;5.50;99.90;;;;;;5097436;28;20111;-89
2021/03/01 08:03:58;;;;;;;32.33;20.23;;;5.60;99.90;;;;;;5096242;28;20550;-90
2021/03/01 08:06:25;;;;;;;33.28;19.95;;;5.60;99.90;;;;;;5096317;28;20047;-91
2021/03/01 08:08:52;;;;;;;36.17;20.15;;;5.60;99.90;;;;;;5096613;28;20429;-89
2021/03/01 08:11:39;;;;;;;31.92;18.45;;;5.70;99.90;;;;;;5087629;28;20052;-88
2021/03/01 08:14:32;;;;;;;38.65;20.67;;;5.80;99.90;;;;;;5082980;28;20020;-86
2021/03/01 08:17:34;;;;;;;35.97;19.05;;;5.80;99.90;;;;;;5072281;28;20028;-88
2021/03/01 08:20:23;;;;;;;37.10;20.38;;;5.80;99.90;;;;;;5002475;28;20576;-88
2021/03/01 08:23:04;;;;;;;34.00;19.85;;;5.80;99.90;;;;;;5078355;28;20123;-87
2021/03/01 08:25:45;;;;;;;36.28;20.73;;;5.80;99.90;;;;;;5084528;28;20021;-86
2021/03/01 08:28:16;;;;;;;32.15;19.88;;;5.70;99.90;;;;;;5076414;28;20536;-85
2021/03/01 08:30:42;;;;;;;39.13;20.95;;;5.70;99.90;;;;;;5074704;28;20043;-88
2021/03/01 08:33:08;;;;;;;37.55;19.75;;;5.70;99.90;;;;;;5080907;28;20025;-85
2021/03/01 08:35:35;;;;;;;33.13;19.55;;;5.70;99.90;;;;;;5084829;28;20027;-87
2021/03/01 08:38:01;;;;;;;37.47;20.80;;;5.80;99.90;;;;;;5077918;28;20029;-88
2021/03/01 08:40:27;;;;;;;36.30;20.38;;;5.80;99.90;;;;;;5092203;28;20050;-88
2021/03/01 08:42:53;;;;;;;34.13;19.77;;;5.90;99.90;;;;;;5075683;28;20029;-88
2021/03/01 08:45:22;;;;;;;32.50;18.73;;;6.00;99.90;;;;;;5076570;28;20119;-90
2021/03/01 08:47:53;;;;;;;30.95;18.77;;;6.00;99.90;;;;;;5092101;28;20391;-86
2021/03/01 08:50:28;;;;;;;27.80;18.08;;;6.00;99.90;;;;;;5074978;28;20027;-88
2021/03/01 08:52:54;;;;;;;31.00;18.92;;;6.00;99.90;;;;;;5091887;28;20031;-89
2021/03/01 08:55:21;;;;;;;31.77;18.55;;;6.00;99.90;;;;;;5074465;28;20045;-89
2021/03/01 08:57:57;;;;;;;34.65;20.10;;;6.00;99.90;;;;;;5074911;28;20472;-88
2021/03/01 09:00:23;;;;;;;32.30;19.13;;;6.00;99.90;;;;;;5074619;28;20093;-88
2021/03/01 09:02:48;;;;;;;36.75;19.83;;;6.00;99.90;;;;;;5074958;28;20067;-88
2021/03/01 09:05:17;;;;;;;37.78;20.88;;;6.00;99.90;;;;;;5074841;28;20121;-88
2021/03/01 09:07:46;;;;;;;36.47;19.42;;;6.00;99.90;;;;;;5073521;28;20396;-88
2021/03/01 09:10:12;;;;;;;31.45;19.17;;;6.10;99.90;;;;;;5074571;28;20025;-89
2021/03/01 09:12:38;;;;;;;34.53;20.08;;;6.00;99.90;;;;;;5074654;28;20107;-88
2021/03/01 09:15:05;;;;;;;31.98;19.02;;;6.00;99.90;;;;;;5075961;28;20049;-88
2021/03/01 09:17:31;;;;;;;32.72;19.05;;;6.00;99.90;;;;;;5074710;28;20119;-85
2021/03/01 09:19:58;;;;;;;35.60;20.13;;;6.00;99.90;;;;;;5076162;28;20048;-88
2021/03/01 09:22:24;;;;;;;30.85;19.10;;;6.00;99.90;;;;;;5076235;28;20070;-87
2021/03/01 09:24:49;;;;;;;33.97;19.27;;;6.10;99.90;;;;;;5075751;28;20028;-87
2021/03/01 09:27:30;;;;;;;36.15;20.80;;;6.10;99.90;;;;;;5078769;28;20024;-88
2021/03/01 09:30:05;;;;;;;36.50;19.98;;;6.10;99.90;;;;;;5074614;28;20025;-88
2021/03/01 09:32:31;;;;;;;34.22;21.05;;;6.20;99.90;;;;;;5074173;28;20025;-87
2021/03/01 09:34:56;;;;;;;32.35;20.20;;;6.10;99.90;;;;;;5078870;28;20020;-86
2021/03/01 09:37:24;;;;;;;33.60;19.13;;;6.20;99.90;;;;;;5092068;28;20479;-85
2021/03/01 09:39:49;;;;;;;30.30;18.98;;;6.20;99.90;;;;;;5094339;28;20028;-87
2021/03/01 09:42:18;;;;;;;31.75;18.08;;;6.20;99.90;;;;;;5091517;28;20115;-86
2021/03/01 09:44:45;;;;;;;34.70;18.88;;;6.20;99.90;;;;;;5089012;28;20032;-87
2021/03/01 09:47:11;;;;;;;29.92;17.83;;;6.30;99.90;;;;;;5090044;28;20020;-88
2021/03/01 09:49:40;;;;;;;28.48;17.17;;;6.30;99.90;;;;;;5085375;28;20020;-88
2021/03/01 09:52:06;;;;;;;34.42;17.90;;;6.40;99.90;;;;;;5077014;28;20074;-89
2021/03/01 09:54:32;;;;;;;29.33;18.15;;;6.50;99.90;;;;;;5075449;28;20028;-90
2021/03/01 09:57:04;;;;;;;28.35;16.90;;;6.50;99.90;;;;;;5057415;28;20059;-89
2021/03/01 09:59:42;;;;;;;26.35;16.80;;;6.50;99.90;;;;;;5074331;28;20025;-90
2021/03/01 10:02:15;;;;;;;30.10;17.98;;;6.60;99.90;;;;;;5074715;28;20101;-89
2021/03/01 10:04:41;;;;;;;33.58;18.17;;;6.60;99.90;;;;;;5073362;28;20025;-88
2021/03/01 10:07:28;;;;;;;30.52;17.70;;;6.70;99.90;;;;;;5073625;28;20029;-88
2021/03/01 10:09:55;;;;;;;31.88;17.65;;;6.70;99.90;;;;;;5074733;28;20496;-87
2021/03/01 10:12:22;;;;;;;30.60;18.00;;;6.60;99.90;;;;;;5073059;28;20028;-89
2021/03/01 10:14:58;;;;;;;29.80;17.45;;;6.60;99.90;;;;;;5073152;28;20056;-88
2021/03/01 10:17:30;;;;;;;34.22;19.15;;;6.60;99.90;;;;;;5073211;28;20024;-87
2021/03/01 10:20:11;;;;;;;32.92;17.55;;;6.60;99.90;;;;;;5072960;28;20111;-88
2021/03/01 10:23:03;;;;;;;33.58;19.67;;;6.70;99.90;;;;;;5072761;28;20028;-87
2021/03/01 10:25:38;;;;;;;38.38;19.92;;;6.70;99.90;;;;;;5073997;28;20527;-87
2021/03/01 10:28:06;;;;;;;34.13;19.55;;;6.60;99.90;;;;;;5073057;28;20028;-90
2021/03/01 10:30:33;;;;;;;36.28;19.65;;;6.50;99.90;;;;;;5071202;28;20052;-88
2021/03/01 10:33:08;;;;;;;29.75;18.10;;;6.50;99.90;;;;;;5089427;28;20026;-87
2021/03/01 10:35:34;;;;;;;29.80;17.60;;;6.60;99.90;;;;;;5089342;28;20031;-89
2021/03/01 10:38:05;;;;;;;27.65;16.42;;;6.60;99.90;;;;;;5085471;28;20020;-88
2021/03/01 10:40:31;;;;;;;28.25;16.95;;;6.60;99.90;;;;;;5093166;28;20031;-88
2021/03/01 10:42:57;;;;;;;26.77;15.98;;;6.60;99.90;;;;;;5092541;28;20020;-86
2021/03/01 10:45:23;;;;;;;27.20;16.15;;;6.60;99.90;;;;;;5094190;28;20026;-89
2021/03/01 10:48:01;;;;;;;30.38;17.13;;;6.60;99.90;;;;;;5092930;28;20048;-87
2021/03/01 10:50:27;;;;;;;36.85;19.10;;;6.70;99.90;;;;;;5093196;28;20020;-89
2021/03/01 10:52:53;;;;;;;29.58;16.50;;;6.60;99.90;;;;;;5093003;28;20050;-87
2021/03/01 10:55:19;;;;;;;31.13;16.40;;;6.60;99.90;;;;;;5094078;28;20040;-91
2021/03/01 10:57:45;;;;;;;33.58;18.58;;;6.70;99.90;;;;;;5093267;28;20548;-91
2021/03/01 11:00:11;;;;;;;33.22;18.67;;;6.70;99.90;;;;;;5094260;28;20032;-90
2021/03/01 11:02:36;;;;;;;31.67;17.52;;;6.80;99.90;;;;;;5092437;28;20387;-87
2021/03/01 11:05:02;;;;;;;33.80;17.67;;;6.80;99.90;;;;;;5090578;28;20024;-88
2021/03/01 11:07:29;;;;;;;37.03;20.35;;;6.80;99.90;;;;;;5080625;28;20372;-89
2021/03/01 11:09:55;;;;;;;29.20;17.02;;;6.80;99.90;;;;;;5083090;28;20016;-86
2021/03/01 11:12:20;;;;;;;30.95;16.98;;;6.80;99.90;;;;;;5082274;28;20541;-89
2021/03/01 11:14:46;;;;;;;32.50;19.33;;;6.70;99.90;;;;;;5085507;28;20024;-90
2021/03/01 11:17:12;;;;;;;35.47;18.45;;;6.80;99.90;;;;;;5093459;28;20097;-88
2021/03/01 11:19:38;;;;;;;32.58;18.45;;;6.90;99.90;;;;;;5092295;28;20024;-87
2021/03/01 11:22:03;;;;;;;30.73;17.67;;;6.90;99.90;;;;;;5092372;28;20085;-88
2021/03/01 11:24:29;;;;;;;29.52;17.45;;;6.90;99.90;;;;;;5092625;28;20035;-85
2021/03/01 11:26:54;;;;;;;35.97;19.83;;;7.00;99.90;;;;;;5092714;28;20027;-87
2021/03/01 11:29:20;;;;;;;31.45;18.02;;;7.00;99.90;;;;;;5092560;28;20016;-89
2021/03/01 11:31:46;;;;;;;31.08;17.58;;;6.90;99.80;;;;;;5093028;28;20016;-87
2021/03/01 11:34:12;;;;;;;30.33;18.00;;;6.90;99.80;;;;;;5080764;28;20035;-86
2021/03/01 11:36:38;;;;;;;30.95;17.30;;;6.90;99.90;;;;;;5084639;28;20103;-86
2021/03/01 11:39:09;;;;;;;30.75;17.92;;;6.90;99.90;;;;;;5085137;28;20071;-88
2021/03/01 11:41:35;;;;;;;30.20;18.55;;;6.90;99.90;;;;;;5086065;28;20444;-91
2021/03/01 11:44:01;;;;;;;34.28;19.23;;;7.00;99.80;;;;;;5082069;28;20043;-88
2021/03/01 11:46:27;;;;;;;27.02;17.10;;;7.10;99.50;;;;;;5083219;28;20483;-90
2021/03/01 11:48:52;;;;;;;29.90;18.75;;;7.00;99.40;;;;;;5080356;28;20384;-91
2021/03/01 11:51:18;;;;;;;25.52;15.55;;;7.10;99.50;;;;;;5082841;28;20025;-86
2021/03/01 11:53:46;;;;;;;29.35;17.17;;;7.20;99.50;;;;;;5081946;28;20020;-88
2021/03/01 11:56:14;;;;;;;26.85;16.35;;;7.20;99.20;;;;;;5077716;28;20045;-87
2021/03/01 11:58:39;;;;;;;25.98;15.38;;;7.10;99.00;;;;;;5086387;28;20028;-89
2021/03/01 12:01:06;;;;;;;22.60;14.30;;;7.20;98.80;;;;;;5083072;28;20120;-92
2021/03/01 12:03:32;;;;;;;26.00;16.05;;;7.30;98.60;;;;;;5083122;28;20123;-92
2021/03/01 12:05:58;;;;;;;30.42;17.35;;;7.50;98.60;;;;;;5084503;28;20027;-90
2021/03/01 12:08:25;;;;;;;24.27;16.23;;;7.70;98.60;;;;;;5081865;28;20107;-91
2021/03/01 12:10:50;;;;;;;29.48;17.63;;;8.10;98.20;;;;;;5081945;28;20021;-90
2021/03/01 12:13:16;;;;;;;26.23;16.80;;;8.30;97.30;;;;;;5083345;28;20036;-87
2021/03/01 12:15:41;;;;;;;30.27;17.13;;;8.20;96.60;;;;;;5085792;28;20020;-90
2021/03/01 12:18:07;;;;;;;26.95;16.98;;;8.10;96.40;;;;;;5083465;28;20024;-87
2021/03/01 12:20:32;;;;;;;23.98;14.75;;;8.10;96.40;;;;;;5093698;28;20502;-87
2021/03/01 12:22:58;;;;;;;24.83;16.08;;;8.00;96.00;;;;;;5079879;28;20020;-87
2021/03/01 12:25:24;;;;;;;28.13;16.63;;;8.00;96.10;;;;;;5078735;28;20021;-90
2021/03/01 12:27:50;;;;;;;26.52;16.40;;;7.90;96.10;;;;;;5086143;28;20026;-90
2021/03/01 12:30:16;;;;;;;25.27;14.57;;;8.00;95.90;;;;;;5084952;28;20474;-91
2021/03/01 12:32:42;;;;;;;25.50;16.17;;;8.00;95.50;;;;;;5081675;28;20506;-91
2021/03/01 12:35:08;;;;;;;25.40;14.93;;;8.80;95.90;;;;;;5086009;28;20028;-89
2021/03/01 12:37:33;;;;;;;25.73;15.82;;;9.30;94.20;;;;;;5080475;28;20020;-91
2021/03/01 12:39:59;;;;;;;28.02;15.85;;;9.30;93.40;;;;;;5083383;28;20437;-89
2021/03/01 12:42:25;;;;;;;26.08;16.70;;;9.40;93.00;;;;;;5084850;28;20024;-91
2021/03/01 12:44:51;;;;;;;28.42;17.40;;;9.40;93.10;;;;;;5087241;28;20421;-91